createdAt,value
2019-01-26T00:00:45.666Z,-1.40
2019-01-26T00:03:16.621Z,-1.42
2019-01-26T00:05:47.559Z,-1.41
2019-01-26T00:08:18.347Z,-1.41
2019-01-26T00:10:49.113Z,-1.41
2019-01-26T00:13:19.920Z,-1.39
2019-01-26T00:15:52.171Z,-1.44
2019-01-26T00:18:22.962Z,-1.41
2019-01-26T00:20:53.806Z,-1.44
2019-01-26T00:23:24.636Z,-1.33
2019-01-26T00:25:55.467Z,-1.25
2019-01-26T00:28:26.322Z,-1.32
2019-01-26T00:30:57.290Z,-1.26
2019-01-26T00:33:28.083Z,-1.41
2019-01-26T00:35:58.983Z,-1.41
2019-01-26T00:38:29.818Z,-1.47
2019-01-26T00:41:00.623Z,-1.44
2019-01-26T00:43:31.491Z,-1.42
2019-01-26T00:46:02.284Z,-1.37
2019-01-26T00:48:33.126Z,-1.37
2019-01-26T00:51:03.944Z,-1.45
2019-01-26T00:53:34.733Z,-1.43
2019-01-26T00:56:05.591Z,-1.34
2019-01-26T00:58:36.438Z,-1.35
2019-01-26T01:01:07.300Z,-1.34
2019-01-26T01:03:38.134Z,-1.44
2019-01-26T01:06:08.990Z,-1.43
2019-01-26T01:08:40.156Z,-1.41
2019-01-26T01:11:10.941Z,-1.31
2019-01-26T01:13:41.816Z,-1.30
2019-01-26T01:16:12.713Z,-1.23
2019-01-26T01:18:43.500Z,-1.28
2019-01-26T01:21:14.276Z,-1.19
2019-01-26T01:23:45.089Z,-1.22
2019-01-26T01:26:15.946Z,-1.21
2019-01-26T01:28:46.779Z,-1.31
2019-01-26T01:31:17.641Z,-1.30
2019-01-26T01:33:48.534Z,-1.37
2019-01-26T01:36:22.720Z,-1.29
2019-01-26T01:38:53.557Z,-1.25
2019-01-26T01:41:31.823Z,-1.23
2019-01-26T01:44:11.386Z,-1.08
2019-01-26T01:46:48.900Z,-1.15
2019-01-26T01:49:19.958Z,-1.15
2019-01-26T01:51:58.769Z,-1.12
2019-01-26T01:54:31.219Z,-1.11
2019-01-26T01:57:05.547Z,-1.18
2019-01-26T01:59:38.457Z,-1.04
2019-01-26T02:02:14.377Z,-1.07
2019-01-26T02:04:48.712Z,-1.03
2019-01-26T02:07:22.763Z,-0.95
2019-01-26T02:09:58.206Z,-0.99
2019-01-26T02:12:29.437Z,-1.02
2019-01-26T02:15:07.557Z,-0.99
2019-01-26T02:17:39.108Z,-0.89
2019-01-26T02:20:13.974Z,-0.78
2019-01-26T02:22:53.710Z,-0.74
2019-01-26T02:25:24.834Z,-0.73
2019-01-26T02:27:57.777Z,-0.66
2019-01-26T02:30:30.143Z,-0.67
2019-01-26T02:33:00.963Z,-0.52
2019-01-26T02:35:31.895Z,-0.53
2019-01-26T02:38:02.692Z,-0.62
2019-01-26T02:40:33.664Z,-0.63
2019-01-26T02:43:04.771Z,-0.66
2019-01-26T02:45:35.548Z,-0.77
2019-01-26T02:48:06.338Z,-0.78
2019-01-26T02:50:37.149Z,-0.79
2019-01-26T02:53:07.965Z,-0.73
2019-01-26T02:55:38.741Z,-0.74
2019-01-26T02:58:09.563Z,-0.72
2019-01-26T03:00:40.297Z,-0.67
2019-01-26T03:03:11.094Z,-0.71
2019-01-26T03:05:41.864Z,-0.66
2019-01-26T03:08:12.664Z,-0.63
2019-01-26T03:10:43.429Z,-0.56
2019-01-26T03:13:14.232Z,-0.60
2019-01-26T03:15:45.166Z,-0.58
2019-01-26T03:18:15.999Z,-0.55
2019-01-26T03:20:46.917Z,-0.48
2019-01-26T03:23:17.715Z,-0.55
2019-01-26T03:25:48.621Z,-0.50
2019-01-26T03:28:20.081Z,-0.36
2019-01-26T03:30:50.983Z,-0.38
2019-01-26T03:33:21.761Z,-0.30
2019-01-26T03:35:52.548Z,-0.30
2019-01-26T03:38:23.378Z,-0.32
2019-01-26T03:40:54.161Z,-0.36
2019-01-26T03:43:24.993Z,-0.40
2019-01-26T03:45:58.590Z,-0.39
2019-01-26T03:48:29.403Z,-0.27
2019-01-26T03:51:00.217Z,-0.32
2019-01-26T03:53:31.053Z,-0.38
2019-01-26T03:56:01.948Z,-0.38
2019-01-26T03:58:33.415Z,-0.11
2019-01-26T04:01:04.295Z,-0.09
2019-01-26T04:03:35.067Z,-0.22
2019-01-26T04:06:05.978Z,-0.28
2019-01-26T04:08:36.753Z,-0.23
2019-01-26T04:11:07.619Z,-0.08
2019-01-26T04:13:38.384Z,-0.21
2019-01-26T04:16:09.204Z,-0.35
2019-01-26T04:18:39.957Z,-0.42
2019-01-26T04:21:10.906Z,-0.33
2019-01-26T04:23:41.666Z,-0.36
2019-01-26T04:26:12.471Z,-0.39
2019-01-26T04:28:43.323Z,-0.38
2019-01-26T04:31:14.197Z,-0.35
2019-01-26T04:33:44.941Z,-0.36
2019-01-26T04:36:15.757Z,-0.40
2019-01-26T04:38:46.583Z,-0.40
2019-01-26T04:41:17.323Z,-0.46
2019-01-26T04:43:48.160Z,-0.45
2019-01-26T04:46:18.965Z,-0.60
2019-01-26T04:48:49.816Z,-0.59
2019-01-26T04:51:20.621Z,-0.58
2019-01-26T04:53:51.458Z,-0.46
2019-01-26T04:56:22.302Z,-0.32
2019-01-26T04:58:53.086Z,-0.47
2019-01-26T05:01:23.961Z,-0.48
2019-01-26T05:03:54.930Z,-0.41
2019-01-26T05:06:25.925Z,-0.37
2019-01-26T05:08:56.708Z,-0.22
2019-01-26T05:11:27.488Z,-0.26
2019-01-26T05:13:58.336Z,-0.24
2019-01-26T05:16:29.201Z,-0.27
2019-01-26T05:19:00.107Z,-0.27
2019-01-26T05:21:30.872Z,-0.25
2019-01-26T05:24:01.724Z,-0.29
2019-01-26T05:26:32.457Z,-0.25
2019-01-26T05:29:03.264Z,-0.14
2019-01-26T05:31:34.125Z,-0.23
2019-01-26T05:34:05.069Z,-0.25
2019-01-26T05:36:35.914Z,-0.23
2019-01-26T05:39:09.108Z,-0.23
2019-01-26T05:41:39.969Z,-0.23
2019-01-26T05:44:10.805Z,-0.27
2019-01-26T05:46:41.651Z,-0.15
2019-01-26T05:49:12.545Z,-0.14
2019-01-26T05:51:43.441Z,-0.12
2019-01-26T05:54:14.233Z,-0.14
2019-01-26T05:56:45.081Z,-0.02
2019-01-26T05:59:15.933Z,-0.01
2019-01-26T06:01:46.830Z,0.02
2019-01-26T06:04:17.630Z,-0.03
2019-01-26T06:06:48.481Z,0.00
2019-01-26T06:09:19.267Z,0.03
2019-01-26T06:11:50.176Z,0.08
2019-01-26T06:14:21.050Z,0.08
2019-01-26T06:16:51.834Z,0.12
2019-01-26T06:19:22.589Z,0.15
2019-01-26T06:21:53.375Z,0.16
2019-01-26T06:24:24.189Z,0.21
2019-01-26T06:26:55.070Z,0.22
2019-01-26T06:29:25.981Z,0.29
2019-01-26T06:31:56.835Z,0.35
2019-01-26T06:34:27.834Z,0.39
2019-01-26T06:36:58.713Z,0.41
2019-01-26T06:39:29.556Z,0.48
2019-01-26T06:42:00.310Z,0.54
2019-01-26T06:44:31.144Z,0.61
2019-01-26T06:47:01.884Z,0.69
2019-01-26T06:49:32.702Z,0.73
2019-01-26T06:52:03.491Z,0.72
2019-01-26T06:54:34.323Z,0.77
2019-01-26T06:57:05.308Z,0.82
2019-01-26T06:59:36.063Z,0.83
2019-01-26T07:02:06.930Z,0.86
2019-01-26T07:04:46.839Z,0.89
2019-01-26T07:07:19.493Z,0.90
2019-01-26T07:09:50.242Z,0.93
2019-01-26T07:12:21.136Z,0.97
2019-01-26T07:14:52.021Z,1.02
2019-01-26T07:17:23.908Z,1.10
2019-01-26T07:19:54.696Z,1.07
2019-01-26T07:22:25.546Z,1.12
2019-01-26T07:24:56.321Z,1.13
2019-01-26T07:27:27.188Z,1.18
2019-01-26T07:29:57.984Z,1.24
2019-01-26T07:32:28.934Z,1.29
2019-01-26T07:34:59.724Z,1.29
2019-01-26T07:37:30.543Z,1.32
2019-01-26T07:40:01.577Z,1.36
2019-01-26T07:42:32.356Z,1.43
2019-01-26T07:45:03.177Z,1.54
2019-01-26T07:47:34.147Z,1.56
2019-01-26T07:50:06.163Z,1.54
2019-01-26T07:52:36.962Z,1.56
2019-01-26T07:55:09.196Z,1.62
2019-01-26T07:57:40.181Z,1.61
2019-01-26T08:00:16.651Z,1.58
2019-01-26T08:02:47.493Z,1.74
2019-01-26T08:05:18.350Z,1.78
2019-01-26T08:07:49.281Z,1.69
2019-01-26T08:10:22.932Z,1.64
2019-01-26T08:12:54.463Z,1.64
2019-01-26T08:15:30.626Z,1.65
2019-01-26T08:18:01.486Z,1.73
2019-01-26T08:20:32.425Z,1.86
2019-01-26T08:23:03.356Z,1.80
2019-01-26T08:25:34.299Z,1.92
2019-01-26T08:28:11.839Z,1.93
2019-01-26T08:30:38.252Z,1.86
2019-01-26T08:33:09.207Z,1.97
2019-01-26T08:35:40.089Z,1.95
2019-01-26T08:38:12.191Z,2.01
2019-01-26T08:40:43.009Z,2.12
2019-01-26T08:43:16.983Z,2.06
2019-01-26T08:45:47.859Z,2.15
2019-01-26T08:48:19.872Z,2.18
2019-01-26T08:50:50.888Z,2.30
2019-01-26T08:53:21.763Z,2.24
2019-01-26T08:55:52.595Z,2.33
2019-01-26T08:58:23.383Z,2.43
2019-01-26T09:00:54.232Z,2.43
2019-01-26T09:03:36.870Z,2.56
2019-01-26T09:06:11.213Z,2.63
2019-01-26T09:08:42.241Z,2.46
2019-01-26T09:11:13.222Z,2.60
2019-01-26T09:13:43.995Z,2.68
2019-01-26T09:16:16.175Z,2.79
2019-01-26T09:18:47.084Z,2.75
2019-01-26T09:21:20.588Z,2.90
2019-01-26T09:23:51.375Z,2.72
2019-01-26T09:26:22.432Z,2.69
2019-01-26T09:28:53.247Z,2.76
2019-01-26T09:31:26.164Z,2.82
2019-01-26T09:33:56.956Z,2.83
2019-01-26T09:36:27.884Z,2.81
2019-01-26T09:38:58.639Z,2.85
2019-01-26T09:41:29.507Z,2.71
2019-01-26T09:44:00.372Z,2.62
2019-01-26T09:46:31.231Z,2.69
2019-01-26T09:49:02.193Z,2.69
2019-01-26T09:51:33.209Z,2.78
2019-01-26T09:54:04.435Z,2.75
2019-01-26T09:56:35.345Z,2.79
2019-01-26T09:59:06.520Z,2.84
2019-01-26T10:01:37.431Z,2.82
2019-01-26T10:04:08.504Z,2.79
2019-01-26T10:06:39.355Z,2.72
2019-01-26T10:09:13.198Z,2.88
2019-01-26T10:11:44.159Z,2.83
2019-01-26T10:14:15.071Z,2.71
2019-01-26T10:16:46.044Z,2.75
2019-01-26T10:19:16.905Z,2.77
2019-01-26T10:21:47.699Z,2.90
2019-01-26T10:24:18.746Z,2.78
2019-01-26T10:26:51.875Z,2.82
2019-01-26T10:29:24.971Z,2.84
2019-01-26T10:31:55.965Z,2.87
2019-01-26T10:34:26.957Z,2.91
2019-01-26T10:37:02.066Z,2.94
2019-01-26T10:39:33.095Z,3.04
2019-01-26T10:42:26.835Z,3.16
2019-01-26T10:44:58.008Z,3.23
2019-01-26T10:47:29.022Z,3.31
2019-01-26T10:49:59.906Z,3.37
2019-01-26T10:52:30.846Z,3.38
2019-01-26T10:55:01.767Z,3.45
2019-01-26T10:57:32.682Z,3.53
2019-01-26T11:00:03.796Z,3.24
2019-01-26T11:02:34.606Z,3.28
2019-01-26T11:05:06.401Z,3.15
2019-01-26T11:07:37.214Z,2.99
2019-01-26T11:10:09.266Z,3.10
2019-01-26T11:12:40.326Z,3.00
2019-01-26T11:15:11.924Z,3.19
2019-01-26T11:17:43.155Z,3.00
2019-01-26T11:20:14.425Z,3.13
2019-01-26T11:22:45.240Z,3.24
2019-01-26T11:25:16.458Z,3.09
2019-01-26T11:28:19.755Z,3.15
2019-01-26T11:30:46.382Z,3.15
2019-01-26T11:33:17.311Z,3.17
2019-01-26T11:35:48.275Z,3.07
2019-01-26T11:38:19.163Z,3.21
2019-01-26T11:40:50.122Z,3.22
2019-01-26T11:43:22.850Z,3.06
2019-01-26T11:46:18.389Z,2.92
2019-01-26T11:48:51.697Z,2.88
2019-01-26T11:51:43.896Z,2.77
2019-01-26T11:54:14.768Z,2.96
2019-01-26T11:56:48.452Z,2.95
2019-01-26T11:59:19.385Z,2.97
2019-01-26T12:02:04.395Z,2.99
2019-01-26T12:05:05.959Z,3.00
2019-01-26T12:07:37.815Z,2.96
2019-01-26T12:10:12.114Z,2.75
2019-01-26T12:12:43.007Z,2.56
2019-01-26T12:15:16.069Z,2.56
2019-01-26T12:17:46.890Z,2.53
2019-01-26T12:20:18.405Z,2.60
2019-01-26T12:22:49.236Z,2.51
2019-01-26T12:25:20.133Z,2.48
2019-01-26T12:27:50.962Z,2.46
2019-01-26T12:30:21.790Z,2.46
2019-01-26T12:32:52.643Z,2.57
2019-01-26T12:35:23.412Z,2.62
2019-01-26T12:37:57.319Z,2.54
2019-01-26T12:40:34.808Z,2.62
2019-01-26T12:43:05.717Z,2.61
2019-01-26T12:45:36.662Z,2.68
2019-01-26T12:48:08.053Z,2.66
2019-01-26T12:50:38.923Z,2.82
2019-01-26T12:53:09.733Z,2.70
2019-01-26T12:55:43.978Z,2.82
2019-01-26T12:58:15.111Z,2.88
2019-01-26T13:00:46.021Z,2.99
2019-01-26T13:03:17.045Z,2.87
2019-01-26T13:05:48.176Z,2.97
2019-01-26T13:08:19.073Z,2.92
2019-01-26T13:10:54.829Z,2.87
2019-01-26T13:13:25.842Z,2.90
2019-01-26T13:15:56.669Z,2.69
2019-01-26T13:22:44.043Z,2.76
2019-01-26T13:25:17.281Z,2.88
2019-01-26T13:27:48.165Z,3.02
2019-01-26T13:30:20.810Z,3.13
2019-01-26T13:32:53.692Z,3.43
2019-01-26T13:35:32.467Z,3.07
2019-01-26T13:38:09.067Z,3.09
2019-01-26T13:41:30.447Z,2.96
2019-01-26T13:44:02.768Z,2.93
2019-01-26T13:46:33.712Z,2.86
2019-01-26T13:49:04.647Z,2.83
2019-01-26T13:51:36.933Z,2.80
2019-01-26T13:54:10.645Z,3.04
2019-01-26T13:56:44.117Z,2.89
2019-01-26T13:59:15.060Z,2.94
2019-01-26T14:01:45.821Z,2.94
2019-01-26T14:04:16.671Z,2.86
2019-01-26T14:06:47.473Z,2.94
2019-01-26T14:09:18.333Z,2.93
2019-01-26T14:11:49.321Z,3.04
2019-01-26T14:14:30.018Z,3.07
2019-01-26T14:17:01.226Z,3.01
2019-01-26T14:19:32.191Z,2.98
2019-01-26T14:22:05.713Z,2.85
2019-01-26T14:24:36.862Z,2.97
2019-01-26T14:27:07.873Z,2.83
2019-01-26T14:29:39.381Z,2.76
2019-01-26T14:32:10.740Z,2.82
2019-01-26T14:34:41.706Z,2.94
2019-01-26T14:37:13.767Z,2.95
2019-01-26T14:39:45.225Z,2.89
2019-01-26T14:42:17.770Z,3.01
2019-01-26T14:44:48.605Z,2.89
2019-01-26T14:47:20.094Z,3.08
2019-01-26T14:49:58.438Z,3.27
2019-01-26T14:52:26.529Z,3.36
2019-01-26T14:54:57.644Z,3.28
2019-01-26T14:57:31.263Z,3.33
2019-01-26T15:00:02.107Z,3.28
2019-01-26T15:02:32.917Z,3.22
2019-01-26T15:05:03.985Z,3.17
2019-01-26T15:07:38.882Z,3.12
2019-01-26T15:10:10.946Z,3.03
2019-01-26T15:12:41.842Z,2.98
2019-01-26T15:15:13.788Z,2.90
2019-01-26T15:21:44.428Z,2.86
2019-01-26T15:24:15.387Z,2.81
2019-01-26T15:26:48.060Z,2.78
2019-01-26T15:29:18.895Z,2.78
2019-01-26T15:31:49.706Z,2.81
2019-01-26T15:34:20.504Z,2.78
2019-01-26T15:36:51.436Z,2.76
2019-01-26T15:39:22.434Z,2.74
2019-01-26T15:41:55.052Z,2.65
2019-01-26T15:44:26.113Z,2.67
2019-01-26T15:46:57.160Z,2.65
2019-01-26T15:49:28.028Z,2.65
2019-01-26T15:51:58.896Z,2.66
2019-01-26T15:54:32.406Z,2.65
2019-01-26T15:57:03.720Z,2.66
2019-01-26T15:59:37.068Z,2.67
2019-01-26T16:02:08.186Z,2.67
2019-01-26T16:04:39.228Z,2.66
2019-01-26T16:07:10.001Z,2.67
2019-01-26T16:09:45.043Z,2.62
2019-01-26T16:12:16.354Z,2.65
2019-01-26T16:14:47.258Z,2.68
2019-01-26T16:17:18.156Z,2.68
2019-01-26T16:19:49.138Z,2.56
2019-01-26T16:22:20.067Z,2.62
2019-01-26T16:24:53.837Z,2.69
2019-01-26T16:27:24.705Z,2.72
2019-01-26T16:29:55.735Z,2.76
2019-01-26T16:32:29.052Z,2.81
2019-01-26T16:35:00.036Z,2.82
2019-01-26T16:37:30.854Z,2.81
2019-01-26T16:40:04.569Z,2.83
2019-01-26T16:42:37.134Z,2.83
2019-01-26T16:45:14.096Z,2.92
2019-01-26T16:47:47.912Z,2.91
2019-01-26T16:50:27.586Z,2.91
2019-01-26T16:52:55.568Z,2.94
2019-01-26T16:55:26.629Z,2.95
2019-01-26T16:57:57.459Z,2.95
2019-01-26T17:00:39.212Z,2.99
2019-01-26T17:03:10.515Z,2.97
2019-01-26T17:05:41.579Z,2.93
2019-01-26T17:08:12.663Z,2.88
2019-01-26T17:10:43.481Z,2.87
2019-01-26T17:13:14.353Z,2.90
2019-01-26T17:15:45.297Z,2.98
2019-01-26T17:18:16.219Z,3.01
2019-01-26T17:20:47.663Z,3.04
2019-01-26T17:23:19.042Z,3.11
2019-01-26T17:25:49.940Z,3.10
2019-01-26T17:28:21.027Z,3.11
2019-01-26T17:30:51.954Z,3.12
2019-01-26T17:33:22.689Z,3.06
2019-01-26T17:35:53.540Z,3.03
2019-01-26T17:38:24.493Z,3.04
2019-01-26T17:40:55.315Z,3.10
2019-01-26T17:43:26.314Z,3.14
2019-01-26T17:45:57.169Z,3.15
2019-01-26T17:48:28.119Z,3.10
2019-01-26T17:51:02.024Z,3.07
2019-01-26T17:53:32.835Z,3.00
2019-01-26T17:56:06.233Z,3.07
2019-01-26T17:58:37.485Z,3.16
2019-01-26T18:01:12.115Z,3.14
2019-01-26T18:03:42.920Z,3.12
2019-01-26T18:06:13.800Z,3.04
2019-01-26T18:08:45.481Z,3.03
2019-01-26T18:11:16.301Z,3.03
2019-01-26T18:13:47.137Z,3.12
2019-01-26T18:16:19.438Z,3.09
2019-01-26T18:18:50.442Z,3.16
2019-01-26T18:21:21.322Z,3.18
2019-01-26T18:23:52.490Z,3.07
2019-01-26T18:26:24.831Z,3.15
2019-01-26T18:28:55.982Z,3.21
2019-01-26T18:31:28.076Z,3.18
2019-01-26T18:33:59.103Z,3.14
2019-01-26T18:36:29.911Z,3.23
2019-01-26T18:39:00.670Z,3.28
2019-01-26T18:41:31.495Z,3.25
2019-01-26T18:44:02.447Z,3.25
2019-01-26T18:46:33.217Z,3.27
2019-01-26T18:49:04.083Z,3.22
2019-01-26T18:51:34.911Z,3.22
2019-01-26T18:54:06.276Z,3.22
2019-01-26T18:56:37.113Z,3.24
2019-01-26T18:59:07.874Z,3.29
2019-01-26T19:01:38.739Z,3.29
2019-01-26T19:04:47.182Z,3.30
2019-01-26T19:07:17.958Z,3.34
2019-01-26T19:09:48.952Z,3.37
2019-01-26T19:12:19.744Z,3.42
2019-01-26T19:14:53.659Z,3.43
2019-01-26T19:17:24.967Z,3.41
2019-01-26T19:19:55.858Z,3.41
2019-01-26T19:22:26.738Z,3.40
2019-01-26T19:24:57.572Z,3.45
2019-01-26T19:27:28.354Z,3.38
2019-01-26T19:29:59.204Z,3.41
2019-01-26T19:32:30.056Z,3.44
2019-01-26T19:35:00.890Z,3.50
2019-01-26T19:37:31.727Z,3.52
2019-01-26T19:40:02.518Z,3.52
2019-01-26T19:42:33.303Z,3.51
2019-01-26T19:45:04.549Z,3.52
2019-01-26T19:47:35.376Z,3.55
2019-01-26T19:50:07.407Z,3.56
2019-01-26T19:52:38.195Z,3.59
2019-01-26T19:55:09.696Z,3.61
2019-01-26T19:57:40.490Z,3.63
2019-01-26T20:00:11.898Z,3.65
2019-01-26T20:02:42.690Z,3.68
2019-01-26T20:05:16.762Z,3.72
2019-01-26T20:07:48.411Z,3.74
2019-01-26T20:10:20.285Z,3.76
2019-01-26T20:12:51.157Z,3.82
2019-01-26T20:15:23.069Z,3.84
2019-01-26T20:17:54.002Z,3.87
2019-01-26T20:20:29.372Z,3.79
2019-01-26T20:23:00.373Z,3.77
2019-01-26T20:25:31.316Z,3.74
2019-01-26T20:28:02.245Z,3.77
2019-01-26T20:30:34.373Z,3.76
2019-01-26T20:33:05.623Z,3.85
2019-01-26T20:35:36.476Z,3.88
2019-01-26T20:38:07.550Z,3.87
2019-01-26T20:40:39.622Z,3.91
2019-01-26T20:43:10.535Z,3.93
2019-01-26T20:45:41.454Z,3.97
2019-01-26T20:48:12.440Z,4.03
2019-01-26T20:50:43.249Z,4.05
2019-01-26T20:53:14.114Z,4.07
2019-01-26T20:55:44.933Z,4.08
2019-01-26T20:58:17.549Z,4.09
2019-01-26T21:00:48.473Z,4.14
2019-01-26T21:03:19.813Z,4.14
2019-01-26T21:05:56.181Z,4.16
2019-01-26T21:08:32.616Z,4.20
2019-01-26T21:11:09.703Z,4.23
2019-01-26T21:13:40.974Z,4.25
2019-01-26T21:16:12.401Z,4.24
2019-01-26T21:18:43.603Z,4.26
2019-01-26T21:21:17.544Z,4.31
2019-01-26T21:23:49.546Z,4.32
2019-01-26T21:26:20.343Z,4.32
2019-01-26T21:28:51.165Z,4.35
2019-01-26T21:31:21.931Z,4.43
2019-01-26T21:33:52.733Z,4.40
2019-01-26T21:36:23.583Z,4.40
2019-01-26T21:38:54.438Z,4.41
2019-01-26T21:41:25.320Z,4.42
2019-01-26T21:43:56.207Z,4.40
2019-01-26T21:46:27.104Z,4.43
2019-01-26T21:48:57.955Z,4.47
2019-01-26T21:51:28.741Z,4.44
2019-01-26T21:53:59.564Z,4.45
2019-01-26T21:56:30.341Z,4.41
2019-01-26T21:59:01.291Z,4.48
2019-01-26T22:01:32.089Z,4.49
2019-01-26T22:04:03.097Z,4.48
2019-01-26T22:06:33.933Z,4.46
2019-01-26T22:09:09.010Z,4.50
2019-01-26T22:11:39.883Z,4.50
2019-01-26T22:14:10.659Z,4.47
2019-01-26T22:16:41.541Z,4.46
2019-01-26T22:19:12.313Z,4.48
2019-01-26T22:21:46.133Z,4.47
2019-01-26T22:24:15.679Z,4.52
2019-01-26T22:26:46.513Z,4.45
2019-01-26T22:29:17.316Z,4.42
2019-01-26T22:31:48.119Z,4.52
2019-01-26T22:34:18.909Z,4.51
2019-01-26T22:36:49.681Z,4.46
2019-01-26T22:39:20.477Z,4.45
2019-01-26T22:41:51.262Z,4.48
2019-01-26T22:44:22.064Z,4.46
2019-01-26T22:46:53.557Z,4.52
2019-01-26T22:49:24.365Z,4.51
2019-01-26T22:51:55.178Z,4.49
2019-01-26T22:54:25.910Z,4.48
2019-01-26T22:56:56.785Z,4.49
2019-01-26T22:59:27.607Z,4.44
2019-01-26T23:01:58.659Z,4.46
2019-01-26T23:05:21.925Z,4.45
2019-01-26T23:08:06.353Z,4.48
2019-01-26T23:11:27.070Z,4.48
2019-01-26T23:14:34.025Z,4.52
2019-01-26T23:17:51.830Z,4.41
2019-01-26T23:20:38.924Z,4.35
2019-01-26T23:24:01.070Z,4.25
2019-01-26T23:27:14.096Z,4.34
2019-01-26T23:30:47.428Z,4.31
2019-01-26T23:33:18.214Z,4.30
2019-01-26T23:35:48.992Z,4.20
2019-01-26T23:38:19.868Z,4.27
2019-01-26T23:40:50.625Z,4.18
2019-01-26T23:43:21.392Z,4.22
2019-01-26T23:45:52.200Z,4.17
2019-01-26T23:48:22.990Z,4.09
2019-01-26T23:50:53.786Z,4.07
2019-01-26T23:53:24.624Z,4.10
2019-01-26T23:55:55.444Z,4.08
2019-01-26T23:58:26.288Z,4.08
